createdAt,value
2023-04-22T00:00:23.426Z,64.14
2023-04-22T00:03:15.567Z,64.69
2023-04-22T00:05:48.036Z,64.85
2023-04-22T00:08:20.158Z,65.40
2023-04-22T00:10:52.174Z,65.23
2023-04-22T00:13:24.107Z,65.75
2023-04-22T00:15:56.241Z,68.63
2023-04-22T00:18:28.466Z,65.71
2023-04-22T00:21:00.993Z,65.64
2023-04-22T00:23:33.013Z,65.76
2023-04-22T00:26:05.978Z,65.67
2023-04-22T00:28:38.066Z,65.25
2023-04-22T00:31:10.305Z,68.82
2023-04-22T00:33:42.606Z,66.20
2023-04-22T00:36:14.629Z,65.54
2023-04-22T00:38:51.249Z,65.58
2023-04-22T00:41:23.635Z,65.67
2023-04-22T00:43:56.420Z,65.08
2023-04-22T00:46:28.912Z,66.37
2023-04-22T00:49:02.405Z,65.65
2023-04-22T00:51:34.570Z,66.16
2023-04-22T00:54:07.065Z,66.90
2023-04-22T00:56:41.113Z,67.11
2023-04-22T00:59:13.921Z,66.93
2023-04-22T01:01:46.507Z,67.57
2023-04-22T01:04:19.077Z,66.80
2023-04-22T01:06:52.975Z,67.12
2023-04-22T01:09:25.571Z,67.17
2023-04-22T01:11:57.559Z,67.03
2023-04-22T01:14:29.971Z,66.64
2023-04-22T01:17:03.486Z,67.15
2023-04-22T01:19:35.857Z,70.42
2023-04-22T01:22:09.096Z,70.24
2023-04-22T01:24:41.231Z,69.02
2023-04-22T01:27:14.112Z,67.97
2023-04-22T01:29:46.680Z,67.31
2023-04-22T01:32:19.022Z,66.92
2023-04-22T01:34:51.522Z,67.18
2023-04-22T01:37:24.221Z,68.80
2023-04-22T01:39:58.322Z,68.23
2023-04-22T01:42:30.392Z,67.78
2023-04-22T01:45:02.392Z,68.26
2023-04-22T01:47:34.379Z,68.38
2023-04-22T01:50:07.430Z,68.33
2023-04-22T01:52:39.675Z,67.34
2023-04-22T01:55:13.393Z,67.23
2023-04-22T01:57:45.493Z,67.82
2023-04-22T02:00:18.688Z,68.02
2023-04-22T02:02:52.464Z,67.56
2023-04-22T02:05:24.576Z,68.80
2023-04-22T02:07:57.164Z,70.31
2023-04-22T02:10:29.154Z,69.47
2023-04-22T02:13:01.939Z,68.25
2023-04-22T02:15:34.247Z,68.50
2023-04-22T02:18:06.586Z,68.73
2023-04-22T02:20:39.381Z,68.50
2023-04-22T02:23:11.663Z,68.64
2023-04-22T02:25:49.289Z,69.33
2023-04-22T02:28:21.854Z,69.42
2023-04-22T02:30:53.924Z,69.67
2023-04-22T02:33:28.219Z,70.15
2023-04-22T02:36:00.232Z,69.17
2023-04-22T02:38:32.473Z,68.84
2023-04-22T02:41:04.524Z,69.99
2023-04-22T02:43:36.594Z,71.88
2023-04-22T02:46:13.258Z,73.60
2023-04-22T02:48:46.089Z,74.81
2023-04-22T02:51:18.161Z,73.57
2023-04-22T02:53:50.211Z,72.62
2023-04-22T02:56:23.271Z,71.92
2023-04-22T02:58:55.417Z,71.61
2023-04-22T03:01:27.473Z,71.04
2023-04-22T03:04:00.973Z,70.60
2023-04-22T03:06:33.489Z,70.45
2023-04-22T03:09:05.896Z,70.35
2023-04-22T03:11:37.931Z,69.63
2023-04-22T03:14:10.100Z,69.74
2023-04-22T03:16:42.302Z,69.74
2023-04-22T03:19:14.435Z,70.08
2023-04-22T03:21:46.432Z,69.80
2023-04-22T03:24:18.989Z,69.75
2023-04-22T03:26:53.807Z,69.67
2023-04-22T03:29:25.879Z,70.12
2023-04-22T03:31:58.008Z,69.91
2023-04-22T03:34:30.120Z,70.41
2023-04-22T03:37:02.294Z,70.78
2023-04-22T03:39:34.644Z,70.66
2023-04-22T03:42:07.116Z,70.39
2023-04-22T03:44:39.605Z,70.16
2023-04-22T03:47:11.982Z,70.21
2023-04-22T03:49:49.854Z,70.08
2023-04-22T03:52:22.110Z,69.83
2023-04-22T03:55:00.027Z,69.43
2023-04-22T03:57:32.598Z,69.36
2023-04-22T04:00:05.722Z,69.37
2023-04-22T04:02:46.446Z,69.78
2023-04-22T04:05:20.621Z,69.96
2023-04-22T04:07:52.860Z,70.47
2023-04-22T04:10:24.862Z,70.88
2023-04-22T04:12:58.141Z,70.96
2023-04-22T04:15:30.651Z,70.57
2023-04-22T04:18:04.510Z,70.31
2023-04-22T04:20:37.815Z,70.03
2023-04-22T04:23:10.070Z,69.54
2023-04-22T04:25:43.879Z,69.68
2023-04-22T04:28:17.878Z,69.78
2023-04-22T04:30:50.407Z,69.77
2023-04-22T04:33:22.679Z,69.99
2023-04-22T04:35:55.305Z,70.01
2023-04-22T04:38:35.107Z,70.00
2023-04-22T04:41:09.906Z,70.42
2023-04-22T04:43:42.129Z,70.63
2023-04-22T04:46:22.564Z,70.82
2023-04-22T04:48:55.017Z,71.10
2023-04-22T04:51:27.322Z,74.08
2023-04-22T04:54:02.212Z,74.55
2023-04-22T04:56:38.895Z,73.25
2023-04-22T04:59:12.484Z,72.12
2023-04-22T05:01:45.337Z,71.33
2023-04-22T05:04:17.971Z,71.61
2023-04-22T05:06:50.376Z,74.39
2023-04-22T05:09:23.421Z,74.68
2023-04-22T05:11:55.987Z,72.75
2023-04-22T05:14:28.087Z,72.93
2023-04-22T05:17:00.754Z,73.66
2023-04-22T05:19:33.590Z,73.18
2023-04-22T05:22:08.357Z,73.05
2023-04-22T05:24:40.464Z,73.62
2023-04-22T05:27:12.871Z,72.27
2023-04-22T05:29:44.985Z,73.13
2023-04-22T05:32:17.568Z,72.30
2023-04-22T05:34:50.030Z,72.91
2023-04-22T05:37:22.103Z,72.71
2023-04-22T05:39:56.745Z,72.22
2023-04-22T05:42:28.884Z,72.05
2023-04-22T05:45:00.950Z,72.00
2023-04-22T05:47:34.222Z,71.70
2023-04-22T05:50:08.081Z,71.36
2023-04-22T05:52:46.165Z,71.15
2023-04-22T05:55:20.683Z,70.61
2023-04-22T05:57:53.102Z,70.95
2023-04-22T06:00:57.515Z,70.32
2023-04-22T06:03:52.514Z,69.83
2023-04-22T06:06:26.103Z,70.07
2023-04-22T06:08:58.188Z,69.73
2023-04-22T06:11:30.422Z,69.69
2023-04-22T06:14:02.569Z,69.47
2023-04-22T06:16:36.450Z,69.47
2023-04-22T06:19:09.493Z,69.35
2023-04-22T06:21:42.730Z,68.83
2023-04-22T06:24:14.747Z,68.62
2023-04-22T06:26:47.734Z,68.45
2023-04-22T06:29:19.896Z,68.21
2023-04-22T06:31:53.519Z,67.87
2023-04-22T06:34:25.775Z,67.75
2023-04-22T06:36:58.245Z,67.88
2023-04-22T06:39:30.720Z,67.28
2023-04-22T06:42:06.027Z,67.60
2023-04-22T06:45:13.753Z,67.13
2023-04-22T06:47:58.004Z,66.88
2023-04-22T06:50:36.229Z,66.71
2023-04-22T06:53:10.032Z,65.63
2023-04-22T06:55:42.150Z,65.59
2023-04-22T06:58:14.166Z,65.40
2023-04-22T07:00:46.266Z,64.54
2023-04-22T07:03:18.433Z,63.70
2023-04-22T07:05:53.050Z,63.09
2023-04-22T07:08:25.116Z,63.71
2023-04-22T07:10:57.950Z,63.42
2023-04-22T07:13:41.842Z,62.87
2023-04-22T07:16:13.983Z,62.35
2023-04-22T07:18:45.960Z,62.61
2023-04-22T07:21:17.951Z,61.49
2023-04-22T07:23:49.889Z,61.33
2023-04-22T07:26:21.890Z,60.53
2023-04-22T07:28:53.920Z,60.51
2023-04-22T07:31:26.016Z,59.43
2023-04-22T07:33:58.223Z,59.58
2023-04-22T07:36:32.108Z,59.08
2023-04-22T07:39:04.252Z,59.56
2023-04-22T07:41:36.553Z,59.02
2023-04-22T07:44:10.661Z,58.91
2023-04-22T07:46:42.713Z,57.63
2023-04-22T07:49:16.832Z,57.45
2023-04-22T07:51:48.889Z,57.36
2023-04-22T07:54:21.080Z,56.20
2023-04-22T07:56:53.146Z,55.45
2023-04-22T07:59:25.201Z,56.02
2023-04-22T08:01:57.175Z,55.86
2023-04-22T08:04:29.435Z,54.48
2023-04-22T08:07:12.766Z,53.64
2023-04-22T08:09:56.822Z,53.69
2023-04-22T08:12:29.074Z,51.91
2023-04-22T08:15:01.069Z,51.58
2023-04-22T08:17:33.122Z,49.56
2023-04-22T08:20:07.953Z,49.71
2023-04-22T08:22:40.353Z,49.73
2023-04-22T08:25:12.783Z,50.56
2023-04-22T08:27:44.777Z,50.27
2023-04-22T08:30:17.227Z,49.25
2023-04-22T08:32:49.401Z,48.83
2023-04-22T08:35:21.802Z,48.25
2023-04-22T08:37:53.853Z,47.11
2023-04-22T08:40:26.006Z,47.51
2023-04-22T08:42:58.462Z,46.67
2023-04-22T08:45:31.339Z,46.41
2023-04-22T08:48:04.492Z,46.36
2023-04-22T08:50:38.377Z,44.81
2023-04-22T08:53:10.412Z,46.52
2023-04-22T08:55:44.932Z,46.46
2023-04-22T08:58:16.999Z,45.34
2023-04-22T09:00:49.435Z,44.70
2023-04-22T09:03:22.010Z,44.47
2023-04-22T09:05:54.525Z,45.39
2023-04-22T09:08:27.853Z,44.93
2023-04-22T09:11:00.906Z,44.13
2023-04-22T09:13:34.719Z,44.74
2023-04-22T09:16:07.561Z,44.11
2023-04-22T09:18:46.017Z,44.09
2023-04-22T09:21:18.189Z,42.90
2023-04-22T09:23:52.125Z,42.56
2023-04-22T09:26:24.945Z,41.63
2023-04-22T09:29:00.986Z,41.38
2023-04-22T09:31:33.866Z,41.16
2023-04-22T09:34:07.194Z,38.60
2023-04-22T09:36:39.525Z,38.64
2023-04-22T09:39:11.803Z,39.20
2023-04-22T09:41:44.088Z,38.72
2023-04-22T09:44:19.206Z,37.79
2023-04-22T09:46:52.709Z,36.84
2023-04-22T09:49:25.043Z,37.26
2023-04-22T09:51:59.775Z,36.27
2023-04-22T09:54:31.856Z,36.94
2023-04-22T09:57:05.739Z,36.71
2023-04-22T09:59:38.627Z,36.91
2023-04-22T10:02:11.756Z,36.66
2023-04-22T10:04:43.974Z,36.03
2023-04-22T10:07:17.662Z,34.43
2023-04-22T10:09:49.742Z,34.80
2023-04-22T10:12:29.547Z,34.38
2023-04-22T10:15:07.999Z,34.43
2023-04-22T10:17:42.538Z,33.89
2023-04-22T10:20:19.987Z,32.98
2023-04-22T10:22:57.438Z,34.19
2023-04-22T10:25:29.715Z,32.41
2023-04-22T10:28:07.915Z,32.20
2023-04-22T10:30:41.434Z,31.74
2023-04-22T10:33:40.693Z,31.43
2023-04-22T10:36:17.457Z,30.78
2023-04-22T10:39:19.091Z,31.55
2023-04-22T10:41:56.783Z,30.64
2023-04-22T10:44:46.891Z,30.39
2023-04-22T10:47:30.260Z,30.44
2023-04-22T10:50:28.863Z,29.90
2023-04-22T10:53:03.395Z,28.67
2023-04-22T10:55:53.944Z,28.92
2023-04-22T10:58:27.286Z,28.03
2023-04-22T11:01:03.251Z,28.49
2023-04-22T11:03:35.434Z,28.01
2023-04-22T11:06:18.791Z,27.60
2023-04-22T11:08:52.121Z,27.87
2023-04-22T11:11:24.252Z,27.69
2023-04-22T11:13:56.868Z,28.09
2023-04-22T11:16:29.250Z,28.62
2023-04-22T11:19:01.828Z,28.74
2023-04-22T11:21:34.544Z,28.23
2023-04-22T11:24:10.757Z,27.29
2023-04-22T11:26:42.710Z,27.94
2023-04-22T11:29:14.713Z,27.82
2023-04-22T11:31:51.882Z,26.72
2023-04-22T11:34:24.080Z,27.07
2023-04-22T11:36:56.080Z,26.41
2023-04-22T11:39:43.635Z,25.95
2023-04-22T11:42:24.797Z,25.16
2023-04-22T11:44:56.883Z,23.82
2023-04-22T11:47:32.177Z,25.18
2023-04-22T11:50:07.164Z,25.41
2023-04-22T11:52:47.582Z,26.48
2023-04-22T11:55:22.745Z,25.71
2023-04-22T11:58:01.721Z,24.84
2023-04-22T12:00:37.254Z,25.01
2023-04-22T12:03:15.440Z,23.82
2023-04-22T12:05:51.646Z,24.81
2023-04-22T12:08:26.223Z,24.72
2023-04-22T12:11:00.719Z,24.99
2023-04-22T12:13:34.845Z,25.06
2023-04-22T12:16:12.135Z,23.81
2023-04-22T12:18:50.921Z,23.98
2023-04-22T12:21:25.982Z,24.51
2023-04-22T12:24:00.186Z,26.22
2023-04-22T12:26:32.641Z,24.56
2023-04-22T12:29:05.159Z,24.72
2023-04-22T12:31:38.758Z,24.49
2023-04-22T12:34:10.999Z,24.41
2023-04-22T12:36:43.057Z,23.79
2023-04-22T12:39:15.349Z,23.97
2023-04-22T12:41:51.111Z,24.43
2023-04-22T12:44:25.081Z,24.65
2023-04-22T12:46:57.368Z,24.31
2023-04-22T12:49:29.466Z,23.94
2023-04-22T12:52:01.829Z,23.62
2023-04-22T12:54:34.078Z,23.70
2023-04-22T12:57:06.185Z,24.46
2023-04-22T12:59:38.421Z,24.35
2023-04-22T13:02:10.911Z,23.95
2023-04-22T13:04:43.258Z,23.84
2023-04-22T13:07:15.226Z,23.40
2023-04-22T13:09:47.223Z,23.17
2023-04-22T13:12:19.206Z,23.94
2023-04-22T13:14:51.265Z,24.14
2023-04-22T13:17:24.217Z,23.66
2023-04-22T13:19:56.476Z,23.48
2023-04-22T13:22:28.476Z,23.77
2023-04-22T13:25:00.539Z,23.12
2023-04-22T13:27:32.571Z,23.06
2023-04-22T13:30:05.094Z,23.13
2023-04-22T13:32:37.449Z,22.75
2023-04-22T13:35:11.142Z,22.87
2023-04-22T13:37:43.093Z,22.57
2023-04-22T13:40:15.473Z,21.74
2023-04-22T13:42:47.595Z,22.17
2023-04-22T13:45:19.681Z,22.56
2023-04-22T13:47:52.304Z,21.60
2023-04-22T13:50:24.859Z,21.41
2023-04-22T13:52:56.946Z,21.40
2023-04-22T13:55:28.949Z,21.36
2023-04-22T13:58:01.367Z,20.72
2023-04-22T14:00:33.702Z,21.11
2023-04-22T14:03:06.530Z,21.26
2023-04-22T14:05:38.704Z,20.68
2023-04-22T14:08:11.130Z,20.37
2023-04-22T14:10:43.194Z,21.02
2023-04-22T14:13:15.246Z,20.06
2023-04-22T14:15:47.175Z,20.04
2023-04-22T14:18:19.227Z,20.22
2023-04-22T14:20:51.929Z,19.82
2023-04-22T14:23:24.332Z,20.25
2023-04-22T14:25:56.257Z,19.23
2023-04-22T14:28:28.459Z,19.10
2023-04-22T14:31:01.199Z,19.89
2023-04-22T14:33:33.263Z,19.40
2023-04-22T14:36:05.840Z,19.42
2023-04-22T14:38:37.952Z,18.42
2023-04-22T14:41:10.219Z,18.25
2023-04-22T14:43:42.343Z,17.98
2023-04-22T14:46:14.498Z,17.90
2023-04-22T14:48:46.579Z,18.06
2023-04-22T14:51:18.643Z,16.70
2023-04-22T14:53:50.691Z,16.47
2023-04-22T14:56:23.089Z,15.70
2023-04-22T14:58:55.156Z,15.51
2023-04-22T15:01:27.288Z,15.45
2023-04-22T15:03:59.494Z,15.47
2023-04-22T15:06:33.026Z,14.97
2023-04-22T15:09:05.686Z,14.82
2023-04-22T15:11:37.663Z,14.77
2023-04-22T15:14:09.617Z,15.76
2023-04-22T15:16:41.666Z,15.44
2023-04-22T15:19:13.666Z,14.44
2023-04-22T15:21:46.895Z,13.74
2023-04-22T15:24:20.124Z,14.04
2023-04-22T15:26:53.020Z,13.13
2023-04-22T15:29:25.675Z,13.94
2023-04-22T15:31:58.168Z,13.58
2023-04-22T15:34:30.280Z,13.97
2023-04-22T15:37:02.597Z,13.62
2023-04-22T15:39:34.999Z,14.39
2023-04-22T15:42:07.246Z,13.47
2023-04-22T15:44:39.217Z,12.69
2023-04-22T15:47:11.388Z,13.08
2023-04-22T15:49:43.478Z,15.47
2023-04-22T15:52:16.413Z,15.58
2023-04-22T15:54:48.536Z,16.78
2023-04-22T15:57:20.526Z,17.58
2023-04-22T16:00:02.910Z,17.78
2023-04-22T16:02:55.389Z,18.70
2023-04-22T16:05:29.298Z,20.41
2023-04-22T16:08:01.259Z,21.19
2023-04-22T16:10:33.280Z,21.70
2023-04-22T16:13:05.471Z,21.93
2023-04-22T16:15:37.752Z,22.98
2023-04-22T16:18:10.126Z,24.89
2023-04-22T16:20:42.167Z,25.18
2023-04-22T16:23:14.285Z,26.11
2023-04-22T16:25:46.389Z,25.76
2023-04-22T16:28:19.088Z,25.95
2023-04-22T16:30:51.131Z,26.30
2023-04-22T16:33:23.194Z,26.67
2023-04-22T16:35:55.183Z,26.89
2023-04-22T16:38:27.237Z,27.94
2023-04-22T16:40:59.218Z,28.68
2023-04-22T16:43:31.348Z,28.24
2023-04-22T16:46:03.994Z,29.41
2023-04-22T16:48:36.063Z,29.26
2023-04-22T16:51:08.163Z,29.88
2023-04-22T16:53:40.351Z,31.05
2023-04-22T16:56:12.416Z,32.55
2023-04-22T16:58:44.504Z,32.06
2023-04-22T17:01:16.790Z,32.30
2023-04-22T17:03:49.146Z,32.37
2023-04-22T17:06:21.896Z,32.59
2023-04-22T17:08:54.265Z,32.78
2023-04-22T17:11:26.838Z,34.07
2023-04-22T17:13:59.484Z,34.99
2023-04-22T17:16:32.436Z,36.59
2023-04-22T17:19:04.571Z,35.68
2023-04-22T17:21:36.858Z,34.77
2023-04-22T17:24:09.228Z,34.62
2023-04-22T17:26:41.220Z,34.26
2023-04-22T17:29:13.238Z,34.19
2023-04-22T17:31:45.366Z,34.52
2023-04-22T17:34:17.408Z,34.53
2023-04-22T17:36:49.482Z,34.94
2023-04-22T17:39:21.474Z,35.03
2023-04-22T17:41:53.578Z,36.14
2023-04-22T17:44:25.769Z,37.34
2023-04-22T17:46:57.829Z,36.81
2023-04-22T17:49:29.891Z,37.44
2023-04-22T17:52:01.955Z,37.14
2023-04-22T17:54:34.017Z,36.70
2023-04-22T17:57:06.101Z,36.42
2023-04-22T17:59:38.192Z,36.38
2023-04-22T18:02:11.999Z,36.13
2023-04-22T18:04:44.158Z,36.32
2023-04-22T18:07:16.209Z,36.76
2023-04-22T18:09:49.711Z,37.53
2023-04-22T18:12:24.275Z,37.03
2023-04-22T18:14:56.385Z,37.92
2023-04-22T18:17:28.420Z,39.51
2023-04-22T18:20:13.868Z,41.71
2023-04-22T18:22:52.151Z,41.29
2023-04-22T18:25:25.929Z,41.43
2023-04-22T18:27:57.945Z,44.94
2023-04-22T18:30:30.891Z,44.64
2023-04-22T18:33:05.398Z,44.51
2023-04-22T18:35:37.428Z,46.13
2023-04-22T18:38:09.444Z,47.19
2023-04-22T18:40:41.552Z,47.84
2023-04-22T18:43:13.590Z,47.06
2023-04-22T18:45:45.666Z,45.94
2023-04-22T18:48:18.854Z,46.66
2023-04-22T18:50:51.253Z,47.95
2023-04-22T18:53:23.340Z,48.85
2023-04-22T18:55:55.432Z,48.69
2023-04-22T18:58:27.681Z,49.66
2023-04-22T19:01:00.156Z,50.80
2023-04-22T19:03:32.651Z,50.52
2023-04-22T19:06:05.182Z,51.32
2023-04-22T19:08:37.001Z,51.99
2023-04-22T19:11:09.182Z,52.54
2023-04-22T19:13:41.298Z,52.54
2023-04-22T19:16:13.323Z,52.52
2023-04-22T19:18:45.427Z,56.26
2023-04-22T19:21:19.843Z,54.14
2023-04-22T19:23:53.036Z,55.58
2023-04-22T19:26:25.206Z,55.22
2023-04-22T19:28:57.223Z,53.61
2023-04-22T19:31:30.488Z,53.84
2023-04-22T19:34:03.214Z,53.27
2023-04-22T19:36:35.222Z,54.68
2023-04-22T19:39:08.676Z,55.50
2023-04-22T19:41:40.778Z,56.36
2023-04-22T19:44:12.854Z,56.02
2023-04-22T19:46:44.847Z,56.57
2023-04-22T19:49:18.214Z,57.82
2023-04-22T19:51:50.966Z,58.91
2023-04-22T19:54:26.597Z,58.34
2023-04-22T19:56:59.746Z,57.33
2023-04-22T19:59:31.992Z,56.40
2023-04-22T20:02:04.682Z,56.43
2023-04-22T20:04:38.328Z,56.96
2023-04-22T20:07:12.065Z,57.00
2023-04-22T20:09:46.650Z,56.94
2023-04-22T20:12:19.154Z,56.93
2023-04-22T20:14:52.020Z,57.39
2023-04-22T20:17:24.902Z,58.77
2023-04-22T20:19:57.741Z,57.88
2023-04-22T20:22:30.164Z,58.40
2023-04-22T20:25:04.073Z,61.17
2023-04-22T20:27:37.329Z,58.76
2023-04-22T20:30:13.617Z,59.28
2023-04-22T20:32:45.960Z,62.41
2023-04-22T20:35:19.370Z,59.59
2023-04-22T20:37:53.014Z,63.46
2023-04-22T20:40:26.231Z,64.29
2023-04-22T20:42:59.730Z,61.06
2023-04-22T20:45:32.297Z,63.97
2023-04-22T20:48:05.357Z,62.63
2023-04-22T20:50:38.322Z,63.05
2023-04-22T20:53:10.412Z,63.79
2023-04-22T20:55:42.421Z,63.64
2023-04-22T20:58:15.911Z,63.69
2023-04-22T21:00:47.985Z,65.46
2023-04-22T21:03:23.593Z,62.79
2023-04-22T21:05:56.746Z,61.18
2023-04-22T21:08:29.411Z,61.11
2023-04-22T21:11:02.609Z,61.01
2023-04-22T21:13:35.962Z,62.53
2023-04-22T21:16:11.536Z,62.17
2023-04-22T21:18:46.894Z,61.83
2023-04-22T21:21:21.326Z,61.35
2023-04-22T21:23:55.568Z,61.27
2023-04-22T21:26:28.720Z,60.95
2023-04-22T21:29:01.603Z,60.54
2023-04-22T21:31:34.262Z,60.04
2023-04-22T21:34:08.631Z,62.00
2023-04-22T21:36:40.634Z,62.48
2023-04-22T21:39:13.176Z,62.89
2023-04-22T21:41:45.234Z,62.67
2023-04-22T21:44:17.285Z,61.57
2023-04-22T21:46:49.260Z,60.73
2023-04-22T21:49:23.234Z,61.24
2023-04-22T21:51:55.287Z,61.41
2023-04-22T21:54:27.346Z,61.78
2023-04-22T21:56:59.543Z,62.15
2023-04-22T21:59:31.611Z,61.62
2023-04-22T22:02:03.621Z,61.80
2023-04-22T22:04:36.491Z,62.39
2023-04-22T22:07:08.659Z,62.72
2023-04-22T22:09:42.104Z,63.32
2023-04-22T22:12:16.499Z,63.06
2023-04-22T22:14:48.529Z,63.66
2023-04-22T22:17:20.808Z,63.53
2023-04-22T22:19:52.819Z,63.48
2023-04-22T22:22:24.953Z,63.48
2023-04-22T22:24:56.958Z,63.91
2023-04-22T22:27:29.033Z,63.44
2023-04-22T22:30:01.100Z,66.67
2023-04-22T22:32:33.960Z,66.29
2023-04-22T22:35:07.073Z,67.86
2023-04-22T22:37:39.784Z,66.46
2023-04-22T22:40:13.704Z,66.03
2023-04-22T22:42:45.684Z,67.86
2023-04-22T22:45:17.813Z,64.64
2023-04-22T22:47:50.122Z,64.74
2023-04-22T22:50:22.268Z,64.96
2023-04-22T22:52:54.311Z,64.59
2023-04-22T22:55:27.744Z,66.26
2023-04-22T22:57:59.688Z,65.16
2023-04-22T23:00:31.762Z,64.77
2023-04-22T23:03:04.636Z,63.85
2023-04-22T23:05:36.805Z,64.77
2023-04-22T23:08:08.981Z,64.68
2023-04-22T23:10:40.946Z,63.95
2023-04-22T23:13:12.981Z,66.22
2023-04-22T23:15:45.050Z,66.14
2023-04-22T23:18:19.282Z,65.03
2023-04-22T23:20:52.251Z,66.72
2023-04-22T23:23:25.615Z,66.55
2023-04-22T23:26:00.871Z,65.50
2023-04-22T23:28:33.903Z,66.72
2023-04-22T23:31:07.928Z,68.23
2023-04-22T23:33:44.394Z,66.07
2023-04-22T23:36:18.881Z,65.98
2023-04-22T23:38:50.997Z,65.67
2023-04-22T23:41:23.089Z,65.48
2023-04-22T23:43:55.086Z,66.08
2023-04-22T23:46:27.088Z,66.56
2023-04-22T23:48:59.576Z,66.72
2023-04-22T23:51:31.776Z,66.43
2023-04-22T23:54:03.682Z,65.24
2023-04-22T23:56:36.740Z,64.96
2023-04-22T23:59:09.571Z,65.34
